Time;durP1;ratioP1;P1;durP2;ratioP2;P2;SDS_P1;SDS_P2;PMS_P1;PMS_P2;Temp;Humidity;BMP_temperature;BMP_pressure;BME280_temperature;BME280_humidity;BME280_pressure;Samples;Min_cycle;Max_cycle;Signal;HPM_P1;HPM_P2
2023/03/11 00:01:14;;;;;;;1.93;1.10;;;4.10;35.60;;;;;;4968394;28;20206;-75
2023/03/11 00:03:40;;;;;;;2.10;1.20;;;4.10;35.10;;;;;;4971572;28;20171;-75
2023/03/11 00:06:06;;;;;;;2.00;1.20;;;4.00;36.20;;;;;;4971949;28;20219;-75
2023/03/11 00:08:32;;;;;;;2.00;1.13;;;4.00;36.30;;;;;;4972732;28;20175;-75
2023/03/11 00:10:59;;;;;;;2.07;1.10;;;4.00;36.70;;;;;;4971279;28;20230;-75
2023/03/11 00:13:27;;;;;;;2.00;1.20;;;4.20;36.20;;;;;;4970913;28;20425;-75
2023/03/11 00:15:58;;;;;;;1.95;1.10;;;4.20;35.60;;;;;;4973051;28;20241;-75
2023/03/11 00:18:26;;;;;;;2.00;1.10;;;4.10;36.20;;;;;;4971837;28;20181;-75
2023/03/11 00:20:53;;;;;;;2.40;1.40;;;4.10;36.30;;;;;;4972416;28;20182;-76
2023/03/11 00:23:19;;;;;;;2.10;1.10;;;4.10;36.20;;;;;;4972556;28;20210;-75
2023/03/11 00:25:45;;;;;;;2.00;1.13;;;4.00;37.80;;;;;;4972040;28;20597;-75
2023/03/11 00:28:13;;;;;;;2.00;1.10;;;3.90;37.50;;;;;;4972224;28;20190;-76
2023/03/11 00:30:40;;;;;;;2.10;1.17;;;4.00;37.40;;;;;;4969652;28;20183;-76
2023/03/11 00:33:06;;;;;;;2.13;1.20;;;4.00;37.10;;;;;;4972268;28;20179;-77
2023/03/11 00:35:33;;;;;;;3.30;1.65;;;4.30;36.10;;;;;;4972934;28;20230;-76
2023/03/11 00:38:02;;;;;;;2.05;1.10;;;4.60;36.60;;;;;;4972128;28;20190;-77
2023/03/11 00:40:30;;;;;;;2.10;1.20;;;4.40;36.00;;;;;;4969859;28;20198;-77
2023/03/11 00:42:56;;;;;;;2.00;1.10;;;4.60;35.70;;;;;;4975976;28;20204;-75
2023/03/11 00:45:22;;;;;;;2.10;1.17;;;4.60;36.00;;;;;;4972530;28;20199;-74
2023/03/11 00:47:49;;;;;;;2.10;1.20;;;4.70;36.60;;;;;;4972817;28;20725;-76
2023/03/11 00:50:18;;;;;;;2.00;1.10;;;4.40;36.10;;;;;;4972965;28;20198;-77
2023/03/11 00:52:45;;;;;;;2.20;1.30;;;4.50;36.80;;;;;;4971308;28;20178;-75
2023/03/11 00:55:14;;;;;;;2.10;1.20;;;4.80;36.10;;;;;;4977444;28;20293;-77
2023/03/11 00:57:40;;;;;;;2.10;1.20;;;5.00;35.90;;;;;;4979285;28;20179;-76
2023/03/11 01:00:10;;;;;;;2.00;1.10;;;4.70;35.60;;;;;;4976177;28;20531;-75
2023/03/11 01:02:37;;;;;;;2.20;1.30;;;4.80;35.20;;;;;;4974862;28;20616;-75
2023/03/11 01:05:04;;;;;;;2.15;1.25;;;4.80;35.30;;;;;;4976178;28;20264;-76
2023/03/11 01:07:30;;;;;;;2.00;1.10;;;4.70;35.90;;;;;;4976522;28;20175;-75
2023/03/11 01:09:55;;;;;;;2.10;1.20;;;4.80;35.40;;;;;;4975772;28;20186;-76
2023/03/11 01:12:21;;;;;;;2.10;1.20;;;4.70;36.00;;;;;;4974739;28;20190;-74
2023/03/11 01:14:47;;;;;;;2.00;1.20;;;5.40;34.30;;;;;;4974746;28;20202;-74
2023/03/11 01:17:12;;;;;;;2.00;1.10;;;4.70;35.20;;;;;;4976335;28;20265;-76
2023/03/11 01:19:38;;;;;;;2.00;1.10;;;4.40;36.80;;;;;;4976283;28;20186;-76
2023/03/11 01:22:03;;;;;;;2.00;1.10;;;4.40;37.10;;;;;;4974673;28;20249;-76
2023/03/11 01:24:29;;;;;;;2.00;1.20;;;4.40;36.60;;;;;;4974050;28;20221;-74
2023/03/11 01:26:55;;;;;;;2.00;1.10;;;4.60;36.00;;;;;;4976248;28;20183;-75
2023/03/11 01:29:20;;;;;;;2.00;1.10;;;4.80;36.00;;;;;;4975643;28;20526;-76
2023/03/11 01:31:46;;;;;;;2.00;1.20;;;4.90;35.80;;;;;;4975973;28;20183;-76
2023/03/11 01:34:11;;;;;;;2.00;1.20;;;5.00;35.40;;;;;;4972611;28;20297;-75
2023/03/11 01:36:37;;;;;;;1.90;1.10;;;4.50;36.60;;;;;;4975412;28;20175;-76
2023/03/11 01:39:03;;;;;;;2.00;1.10;;;4.40;36.70;;;;;;4975697;28;20474;-76
2023/03/11 01:41:29;;;;;;;2.00;1.10;;;4.20;37.90;;;;;;4975396;28;20222;-76
2023/03/11 01:43:55;;;;;;;2.00;1.10;;;4.30;37.50;;;;;;4974000;28;20472;-76
2023/03/11 01:46:47;;;;;;;1.90;1.10;;;4.40;38.10;;;;;;4974445;28;20433;-76
2023/03/11 01:49:12;;;;;;;2.00;1.20;;;4.90;36.00;;;;;;4966050;28;20182;-76
2023/03/11 01:51:41;;;;;;;2.00;1.10;;;5.00;35.90;;;;;;4975672;28;20545;-76
2023/03/11 01:54:18;;;;;;;2.00;1.20;;;5.60;34.80;;;;;;4972857;28;20210;-76
2023/03/11 01:56:45;;;;;;;1.90;1.10;;;6.10;32.90;;;;;;4975342;28;20186;-75
2023/03/11 01:59:14;;;;;;;2.00;1.10;;;6.40;32.60;;;;;;4975569;28;20189;-76
2023/03/11 02:02:05;;;;;;;1.90;1.10;;;6.10;32.80;;;;;;4972494;28;20203;-75
2023/03/11 02:04:35;;;;;;;1.90;1.20;;;6.50;32.00;;;;;;4988155;28;20206;-76
2023/03/11 02:07:02;;;;;;;1.90;1.10;;;6.60;31.40;;;;;;4975322;28;20237;-76
2023/03/11 02:09:27;;;;;;;1.90;1.10;;;6.00;32.20;;;;;;4975631;28;20635;-77
2023/03/11 02:11:54;;;;;;;1.87;1.10;;;5.30;34.40;;;;;;4974508;28;20193;-76
2023/03/11 02:14:20;;;;;;;1.80;1.10;;;5.50;33.90;;;;;;4973944;28;20205;-77
2023/03/11 02:16:46;;;;;;;1.90;1.20;;;4.90;36.10;;;;;;4979083;28;20627;-75
2023/03/11 02:19:22;;;;;;;1.80;1.10;;;4.80;36.50;;;;;;4967509;28;20435;-75
2023/03/11 02:21:48;;;;;;;1.80;1.10;;;4.50;37.50;;;;;;4974357;28;20732;-76
2023/03/11 02:24:35;;;;;;;2.00;1.25;;;4.80;36.70;;;;;;4974270;28;20218;-76
2023/03/11 02:27:04;;;;;;;1.90;1.20;;;4.70;37.50;;;;;;4973676;28;20174;-76
2023/03/11 02:29:32;;;;;;;1.80;1.10;;;4.80;37.50;;;;;;4975490;28;20229;-77
2023/03/11 02:32:00;;;;;;;1.90;1.20;;;4.90;36.80;;;;;;4973350;28;20213;-74
2023/03/11 02:34:31;;;;;;;1.90;1.10;;;5.00;36.60;;;;;;4972782;28;20305;-76
2023/03/11 02:36:58;;;;;;;2.00;1.20;;;4.70;37.30;;;;;;4973133;28;20175;-76
2023/03/11 02:39:30;;;;;;;1.90;1.10;;;4.60;37.60;;;;;;4973806;28;20175;-76
2023/03/11 02:41:57;;;;;;;1.90;1.10;;;4.40;37.70;;;;;;4969859;28;20736;-76
2023/03/11 02:44:23;;;;;;;1.90;1.10;;;4.60;37.70;;;;;;4973672;28;20305;-76
2023/03/11 02:46:48;;;;;;;1.97;1.20;;;4.70;37.10;;;;;;4973574;28;20261;-76
2023/03/11 02:49:15;;;;;;;2.00;1.10;;;5.10;36.00;;;;;;4974037;28;20185;-75
2023/03/11 02:51:40;;;;;;;2.08;1.20;;;4.60;36.90;;;;;;4972920;28;20190;-75
2023/03/11 02:54:06;;;;;;;1.90;1.07;;;4.70;37.10;;;;;;4973154;28;20206;-76
2023/03/11 02:56:32;;;;;;;2.10;1.27;;;4.80;36.70;;;;;;4973445;28;20557;-76
2023/03/11 02:58:57;;;;;;;2.10;1.20;;;4.80;36.80;;;;;;4973030;28;20178;-74
2023/03/11 03:01:23;;;;;;;2.00;1.10;;;4.70;37.00;;;;;;4969090;28;20931;-76
2023/03/11 03:03:48;;;;;;;2.00;1.10;;;4.90;36.30;;;;;;4973029;28;20210;-76
2023/03/11 03:06:14;;;;;;;2.10;1.10;;;4.50;37.90;;;;;;4974074;28;20187;-76
2023/03/11 03:08:40;;;;;;;2.00;1.10;;;4.70;37.10;;;;;;4972113;28;20659;-74
2023/03/11 03:11:06;;;;;;;2.20;1.20;;;4.80;36.80;;;;;;4972411;28;20430;-76
2023/03/11 03:13:31;;;;;;;2.20;1.23;;;4.70;36.60;;;;;;4972412;28;20655;-76
2023/03/11 03:15:58;;;;;;;2.20;1.20;;;5.00;35.00;;;;;;4973199;28;20182;-76
2023/03/11 03:18:24;;;;;;;2.10;1.30;;;4.40;36.00;;;;;;4973515;28;20543;-76
2023/03/11 03:20:50;;;;;;;2.20;1.20;;;4.50;36.10;;;;;;4971053;28;20211;-76
2023/03/11 03:23:16;;;;;;;2.10;1.10;;;4.60;35.60;;;;;;4973113;28;20716;-75
2023/03/11 03:25:43;;;;;;;2.20;1.13;;;4.40;35.00;;;;;;4972660;28;20305;-76
2023/03/11 03:28:10;;;;;;;2.15;1.10;;;4.30;36.10;;;;;;4973499;28;20182;-76
2023/03/11 03:30:36;;;;;;;2.15;1.10;;;4.00;36.00;;;;;;4972326;28;20192;-76
2023/03/11 03:33:02;;;;;;;2.20;1.20;;;4.00;36.10;;;;;;4973410;28;20171;-77
2023/03/11 03:35:27;;;;;;;2.30;1.23;;;4.00;36.10;;;;;;4972671;28;20550;-77
2023/03/11 03:37:54;;;;;;;2.20;1.17;;;4.30;35.20;;;;;;4972395;28;20175;-77
2023/03/11 03:40:20;;;;;;;2.30;1.30;;;4.00;35.60;;;;;;4986634;28;20253;-76
2023/03/11 03:42:45;;;;;;;2.20;1.27;;;4.30;34.60;;;;;;4972749;28;20654;-76
2023/03/11 03:45:11;;;;;;;2.30;1.30;;;4.30;33.80;;;;;;4972760;28;20982;-76
2023/03/11 03:47:37;;;;;;;2.17;1.10;;;4.20;34.60;;;;;;4972795;28;20178;-77
2023/03/11 03:50:05;;;;;;;2.30;1.30;;;4.40;33.90;;;;;;4977852;28;20217;-75
2023/03/11 03:52:31;;;;;;;2.22;1.20;;;4.20;33.60;;;;;;4971629;28;20175;-76
2023/03/11 03:54:57;;;;;;;2.20;1.20;;;4.00;33.30;;;;;;4971594;28;20322;-76
2023/03/11 03:57:22;;;;;;;2.10;1.10;;;4.00;33.50;;;;;;4972591;28;20269;-76
2023/03/11 03:59:48;;;;;;;2.10;1.10;;;3.60;33.40;;;;;;4973232;28;20175;-76
2023/03/11 04:02:13;;;;;;;2.20;1.33;;;3.60;33.70;;;;;;4972219;28;20205;-76
2023/03/11 04:04:39;;;;;;;2.20;1.20;;;3.90;33.50;;;;;;4971894;28;20689;-74
2023/03/11 04:07:05;;;;;;;2.13;1.07;;;4.10;32.30;;;;;;4972027;28;20593;-76
2023/03/11 04:09:32;;;;;;;2.25;1.20;;;4.40;33.20;;;;;;4972648;28;20461;-74
2023/03/11 04:11:58;;;;;;;2.20;1.10;;;4.10;33.50;;;;;;4969787;28;20191;-75
2023/03/11 04:14:24;;;;;;;2.10;1.00;;;4.10;33.90;;;;;;4971283;28;20281;-76
2023/03/11 04:16:50;;;;;;;2.20;1.10;;;4.20;32.50;;;;;;4971858;28;20313;-76
2023/03/11 04:19:15;;;;;;;2.20;1.10;;;4.00;33.10;;;;;;4972293;28;20265;-75
2023/03/11 04:21:41;;;;;;;2.20;1.10;;;3.90;31.90;;;;;;4964805;28;20753;-76
2023/03/11 04:24:07;;;;;;;2.27;1.10;;;3.90;32.50;;;;;;4970235;28;20202;-76
2023/03/11 04:26:32;;;;;;;2.20;1.10;;;3.90;31.70;;;;;;4972248;28;20266;-76
2023/03/11 04:28:58;;;;;;;2.30;1.20;;;4.50;30.80;;;;;;4972353;28;20186;-76
2023/03/11 04:31:24;;;;;;;2.30;1.20;;;4.60;30.50;;;;;;4973094;28;20174;-76
2023/03/11 04:33:49;;;;;;;2.20;1.10;;;4.60;30.40;;;;;;4988128;28;20204;-77
2023/03/11 04:36:15;;;;;;;2.30;1.10;;;4.80;30.30;;;;;;4976373;28;20187;-76
2023/03/11 04:38:40;;;;;;;5.40;1.60;;;4.80;30.40;;;;;;4963529;28;20258;-75
2023/03/11 04:41:07;;;;;;;2.33;1.23;;;4.80;30.00;;;;;;4968708;28;20171;-75
2023/03/11 04:43:33;;;;;;;2.30;1.10;;;4.80;30.10;;;;;;4972310;28;20281;-76
2023/03/11 04:45:58;;;;;;;2.40;1.20;;;4.80;30.00;;;;;;4971490;28;20718;-75
2023/03/11 04:48:25;;;;;;;2.40;1.10;;;5.10;30.20;;;;;;4972076;28;20438;-76
2023/03/11 04:50:51;;;;;;;2.40;1.20;;;5.20;29.80;;;;;;4972765;28;20173;-76
2023/03/11 04:53:17;;;;;;;2.40;1.17;;;5.40;29.60;;;;;;4972482;28;20178;-76
2023/03/11 04:55:43;;;;;;;2.30;1.10;;;5.40;28.60;;;;;;4971479;28;20203;-76
2023/03/11 04:58:08;;;;;;;2.40;1.17;;;5.00;28.50;;;;;;4971298;28;20230;-74
2023/03/11 05:00:34;;;;;;;2.40;1.20;;;4.40;28.90;;;;;;4971111;28;20313;-76
2023/03/11 05:03:00;;;;;;;2.40;1.20;;;4.30;29.30;;;;;;4970236;28;20202;-76
2023/03/11 05:05:25;;;;;;;2.40;1.10;;;4.30;29.50;;;;;;4972713;28;20536;-76
2023/03/11 05:07:51;;;;;;;2.40;1.17;;;4.30;29.40;;;;;;4972590;28;20177;-76
2023/03/11 05:10:21;;;;;;;2.43;1.20;;;4.50;29.00;;;;;;4970141;28;21693;-76
2023/03/11 05:12:48;;;;;;;2.60;1.40;;;4.50;29.40;;;;;;4970609;28;20233;-77
2023/03/11 05:15:13;;;;;;;2.40;1.10;;;4.60;29.40;;;;;;4971709;28;20207;-77
2023/03/11 05:17:39;;;;;;;2.40;1.13;;;4.80;29.20;;;;;;4972515;28;20187;-77
2023/03/11 05:20:07;;;;;;;2.40;1.20;;;5.10;29.40;;;;;;4972602;28;20271;-77
2023/03/11 05:22:33;;;;;;;3.10;1.88;;;5.10;28.60;;;;;;4975113;28;20226;-72
2023/03/11 05:24:58;;;;;;;2.60;1.30;;;4.40;29.50;;;;;;4969546;28;20229;-75
2023/03/11 05:27:24;;;;;;;2.40;1.10;;;3.90;30.30;;;;;;4972054;28;20175;-75
2023/03/11 05:29:50;;;;;;;2.30;1.10;;;3.80;30.60;;;;;;4987323;28;20175;-75
2023/03/11 05:32:15;;;;;;;2.50;1.20;;;3.80;30.90;;;;;;4972305;28;20225;-75
2023/03/11 05:34:41;;;;;;;2.50;1.20;;;3.50;31.10;;;;;;4969812;28;21463;-76
2023/03/11 05:37:07;;;;;;;2.60;1.40;;;3.40;31.60;;;;;;4973640;28;20666;-75
2023/03/11 05:39:33;;;;;;;2.42;1.10;;;3.50;31.70;;;;;;4974946;28;20206;-76
2023/03/11 05:41:59;;;;;;;2.40;1.10;;;4.10;31.30;;;;;;4975765;28;20618;-76
2023/03/11 05:44:25;;;;;;;2.50;1.20;;;3.60;28.40;;;;;;4973735;28;20730;-76
2023/03/11 05:46:50;;;;;;;2.40;1.10;;;6.60;30.00;;;;;;4974641;28;20232;-76
2023/03/11 05:49:16;;;;;;;2.50;1.20;;;5.30;28.90;;;;;;4975051;28;20182;-76
2023/03/11 05:51:42;;;;;;;2.50;1.20;;;5.50;28.30;;;;;;4975477;28;20175;-76
2023/03/11 05:54:13;;;;;;;2.50;1.20;;;5.60;28.10;;;;;;4974394;28;20806;-76
2023/03/11 05:56:41;;;;;;;2.50;1.10;;;5.70;29.00;;;;;;4974211;28;20643;-76
2023/03/11 05:59:07;;;;;;;2.53;1.20;;;5.70;28.80;;;;;;4975315;28;20658;-75
2023/03/11 06:01:33;;;;;;;2.50;1.13;;;5.80;28.00;;;;;;4975919;28;20198;-76
2023/03/11 06:03:59;;;;;;;2.70;1.30;;;5.20;28.40;;;;;;4974703;28;20292;-76
2023/03/11 06:06:25;;;;;;;2.50;1.20;;;4.80;29.20;;;;;;4974078;28;20187;-76
2023/03/11 06:08:51;;;;;;;2.50;1.20;;;4.30;29.70;;;;;;4974611;28;20190;-76
2023/03/11 06:11:17;;;;;;;2.40;1.10;;;3.90;30.00;;;;;;4977024;28;20415;-76
2023/03/11 06:13:43;;;;;;;2.42;1.15;;;3.70;30.90;;;;;;4975319;28;20544;-76
2023/03/11 06:16:08;;;;;;;2.50;1.10;;;4.20;30.80;;;;;;4973315;28;20185;-75
2023/03/11 06:18:34;;;;;;;2.50;1.10;;;4.60;30.10;;;;;;4974361;28;20193;-76
2023/03/11 06:21:02;;;;;;;2.43;1.20;;;4.40;28.90;;;;;;4975073;28;20243;-76
2023/03/11 06:23:28;;;;;;;2.40;1.10;;;4.20;30.20;;;;;;4974535;28;20631;-76
2023/03/11 06:26:04;;;;;;;2.50;1.20;;;4.70;30.30;;;;;;4970962;28;20190;-76
2023/03/11 06:28:31;;;;;;;2.40;1.20;;;5.10;30.00;;;;;;4971515;28;20175;-77
2023/03/11 06:31:06;;;;;;;2.53;1.33;;;4.90;29.30;;;;;;4974251;28;20659;-76
2023/03/11 06:33:31;;;;;;;2.40;1.20;;;4.60;29.50;;;;;;4973545;28;20265;-75
2023/03/11 06:35:59;;;;;;;2.47;1.27;;;4.70;29.10;;;;;;4973950;28;20274;-75
2023/03/11 06:38:25;;;;;;;2.50;1.33;;;5.00;29.40;;;;;;4972624;28;20253;-77
2023/03/11 06:40:51;;;;;;;2.30;1.10;;;5.30;29.30;;;;;;4974604;28;20261;-76
2023/03/11 06:43:16;;;;;;;2.27;1.10;;;5.30;29.40;;;;;;4974470;28;20300;-77
2023/03/11 06:45:42;;;;;;;2.30;1.13;;;5.10;28.90;;;;;;4974515;28;20434;-77
2023/03/11 06:48:08;;;;;;;2.30;1.13;;;4.60;29.90;;;;;;4972535;28;20650;-77
2023/03/11 06:50:33;;;;;;;2.30;1.20;;;4.90;30.10;;;;;;4973958;28;20213;-76
2023/03/11 06:53:00;;;;;;;2.37;1.27;;;5.30;29.50;;;;;;4974301;28;20190;-77
2023/03/11 06:55:26;;;;;;;2.30;1.20;;;5.50;29.00;;;;;;4977737;28;20178;-73
2023/03/11 06:57:52;;;;;;;2.30;1.20;;;5.60;29.20;;;;;;4974893;28;20199;-76
2023/03/11 07:00:17;;;;;;;2.20;1.20;;;6.20;27.30;;;;;;4971847;28;20929;-77
2023/03/11 07:02:43;;;;;;;2.20;1.30;;;6.30;27.10;;;;;;4973211;28;20287;-77
2023/03/11 07:05:09;;;;;;;2.40;1.30;;;6.20;27.70;;;;;;4974250;28;20313;-76
2023/03/11 07:07:34;;;;;;;2.07;1.20;;;6.50;28.10;;;;;;4974398;28;20722;-76
2023/03/11 07:10:00;;;;;;;1.97;1.10;;;5.60;28.40;;;;;;4973987;28;20206;-76
2023/03/11 07:12:26;;;;;;;2.00;1.10;;;5.20;29.50;;;;;;4972123;28;20329;-74
2023/03/11 07:14:58;;;;;;;1.90;1.10;;;5.20;29.70;;;;;;4973866;28;20218;-76
2023/03/11 07:17:24;;;;;;;1.90;1.10;;;5.90;29.90;;;;;;4974371;28;20179;-76
2023/03/11 07:19:50;;;;;;;1.90;1.10;;;5.80;27.80;;;;;;4973395;28;20206;-75
2023/03/11 07:22:16;;;;;;;2.00;1.20;;;5.70;28.70;;;;;;4972306;28;20604;-75
2023/03/11 07:24:46;;;;;;;1.90;1.10;;;5.80;28.00;;;;;;4972463;28;20474;-76
2023/03/11 07:27:12;;;;;;;2.10;1.30;;;5.90;28.00;;;;;;4973268;28;20202;-75
2023/03/11 07:29:38;;;;;;;1.90;1.10;;;5.30;28.70;;;;;;4973809;28;20178;-77
2023/03/11 07:32:05;;;;;;;1.90;1.10;;;3.70;29.80;;;;;;4973139;28;20581;-76
2023/03/11 07:34:30;;;;;;;2.00;1.20;;;4.50;30.00;;;;;;4971527;28;20245;-76
2023/03/11 07:36:56;;;;;;;1.90;1.20;;;4.80;29.60;;;;;;4973522;28;20261;-75
2023/03/11 07:39:22;;;;;;;1.90;1.10;;;4.50;29.00;;;;;;4973413;28;20681;-77
2023/03/11 07:41:47;;;;;;;2.00;1.30;;;4.20;30.10;;;;;;4973188;28;20171;-76
2023/03/11 07:44:14;;;;;;;2.00;1.13;;;4.10;31.20;;;;;;4971739;28;20647;-75
2023/03/11 07:46:40;;;;;;;2.00;1.10;;;4.50;29.40;;;;;;4972244;28;20175;-77
2023/03/11 07:49:06;;;;;;;2.10;1.20;;;4.60;29.10;;;;;;4973749;28;20206;-84
2023/03/11 07:51:33;;;;;;;2.00;1.10;;;5.20;29.40;;;;;;4973783;28;20210;-84
2023/03/11 07:54:00;;;;;;;2.10;1.35;;;4.80;29.20;;;;;;4971740;28;20274;-84
2023/03/11 07:56:28;;;;;;;2.00;1.10;;;4.80;29.20;;;;;;4971443;28;20253;-78
2023/03/11 07:58:54;;;;;;;2.00;1.20;;;4.00;30.20;;;;;;4972935;28;20171;-78
2023/03/11 08:01:22;;;;;;;1.90;1.03;;;4.10;29.70;;;;;;4972103;28;20178;-78
2023/03/11 08:03:50;;;;;;;2.00;1.15;;;4.20;29.30;;;;;;4971959;28;20878;-78
2023/03/11 08:06:19;;;;;;;2.00;1.13;;;4.50;29.50;;;;;;4969358;28;20597;-78
2023/03/11 08:08:45;;;;;;;2.10;1.10;;;4.80;28.20;;;;;;4973510;28;20199;-78
2023/03/11 08:11:12;;;;;;;2.10;1.20;;;5.00;28.60;;;;;;4973606;28;20185;-78
2023/03/11 08:13:38;;;;;;;3.03;1.73;;;5.20;27.80;;;;;;4975696;28;20182;-77
2023/03/11 08:16:08;;;;;;;2.10;1.30;;;5.20;28.10;;;;;;4972953;28;20201;-78
2023/03/11 08:18:34;;;;;;;2.10;1.30;;;5.40;27.50;;;;;;4969326;28;20190;-77
2023/03/11 08:21:08;;;;;;;2.10;1.20;;;5.00;28.40;;;;;;4970795;28;20191;-78
2023/03/11 08:23:34;;;;;;;2.00;1.20;;;5.20;28.10;;;;;;4969907;28;20203;-77
2023/03/11 08:26:04;;;;;;;1.90;1.10;;;5.20;28.30;;;;;;4972325;28;20256;-77
2023/03/11 08:28:29;;;;;;;1.90;1.13;;;5.10;29.40;;;;;;4975872;28;20430;-76
2023/03/11 08:30:55;;;;;;;1.90;1.13;;;5.70;28.30;;;;;;4973915;28;20194;-74
2023/03/11 08:33:21;;;;;;;1.90;1.10;;;6.70;27.20;;;;;;4973452;28;20179;-76
2023/03/11 08:35:46;;;;;;;1.90;1.20;;;6.90;26.20;;;;;;4973397;28;20205;-76
2023/03/11 08:38:12;;;;;;;2.67;1.87;;;6.90;25.00;;;;;;4972624;28;20222;-75
2023/03/11 08:40:37;;;;;;;1.90;1.20;;;6.40;26.10;;;;;;4968631;28;20186;-77
2023/03/11 08:43:03;;;;;;;1.90;1.10;;;6.40;25.50;;;;;;4959955;28;20330;-76
2023/03/11 08:45:29;;;;;;;1.80;1.20;;;5.90;26.50;;;;;;4971627;28;20213;-76
2023/03/11 08:47:54;;;;;;;1.90;1.30;;;5.50;26.40;;;;;;4971060;28;20175;-74
2023/03/11 08:50:20;;;;;;;1.80;1.10;;;5.50;27.20;;;;;;4960472;28;20191;-76
2023/03/11 08:52:46;;;;;;;1.97;1.30;;;5.30;27.40;;;;;;4965579;28;20271;-76
2023/03/11 08:55:15;;;;;;;1.90;1.25;;;4.90;28.80;;;;;;4968853;28;20478;-76
2023/03/11 08:57:41;;;;;;;1.80;1.10;;;5.10;28.20;;;;;;4973740;28;20205;-76
2023/03/11 09:00:08;;;;;;;1.80;1.10;;;5.90;27.30;;;;;;4972249;28;20650;-74
2023/03/11 09:02:34;;;;;;;1.90;1.30;;;6.20;26.40;;;;;;4972202;28;20493;-76
2023/03/11 09:04:59;;;;;;;1.83;1.17;;;5.50;27.20;;;;;;4971628;28;20234;-76
2023/03/11 09:07:25;;;;;;;1.90;1.30;;;6.10;26.90;;;;;;4970045;28;20591;-76
2023/03/11 09:09:51;;;;;;;1.80;1.17;;;6.40;24.90;;;;;;4972505;28;20590;-76
2023/03/11 09:12:16;;;;;;;1.90;1.20;;;6.30;24.80;;;;;;4977738;28;20171;-77
2023/03/11 09:14:42;;;;;;;2.20;1.63;;;6.40;24.90;;;;;;4979176;28;20190;-77
2023/03/11 09:17:10;;;;;;;1.88;1.27;;;6.80;24.60;;;;;;4972447;28;20433;-76
2023/03/11 09:19:37;;;;;;;1.80;1.20;;;6.70;24.50;;;;;;4975701;28;20191;-77
2023/03/11 09:22:04;;;;;;;1.80;1.10;;;6.70;23.70;;;;;;4970921;28;20253;-75
2023/03/11 09:24:33;;;;;;;1.80;1.10;;;6.70;24.10;;;;;;4975581;28;20276;-77
2023/03/11 09:26:59;;;;;;;1.90;1.20;;;6.60;24.30;;;;;;4973352;28;20174;-74
2023/03/11 09:29:25;;;;;;;1.80;1.10;;;6.70;24.40;;;;;;4975663;28;20190;-76
2023/03/11 09:31:50;;;;;;;1.80;1.20;;;6.50;24.50;;;;;;4973556;28;20437;-77
2023/03/11 09:34:16;;;;;;;1.80;1.10;;;6.90;24.80;;;;;;4971789;28;20234;-76
2023/03/11 09:36:42;;;;;;;1.90;1.23;;;7.80;24.10;;;;;;4975931;28;20182;-76
2023/03/11 09:39:09;;;;;;;1.90;1.20;;;7.90;24.90;;;;;;4972874;28;20214;-75
2023/03/11 09:42:01;;;;;;;1.80;1.10;;;7.00;24.90;;;;;;4975002;28;20239;-76
2023/03/11 09:44:32;;;;;;;1.90;1.20;;;7.20;24.70;;;;;;4975714;28;20617;-75
2023/03/11 09:47:37;;;;;;;1.80;1.10;;;7.70;23.10;;;;;;4975966;28;20178;-77
2023/03/11 09:50:25;;;;;;;1.80;1.10;;;7.70;23.90;;;;;;4964247;28;20258;-78
2023/03/11 09:53:09;;;;;;;1.80;1.10;;;7.30;22.90;;;;;;4966123;28;20598;-76
2023/03/11 09:55:37;;;;;;;1.80;1.10;;;6.80;24.30;;;;;;4976586;28;20571;-78
2023/03/11 09:58:20;;;;;;;2.00;1.35;;;7.50;23.30;;;;;;4968233;28;20179;-78
2023/03/11 10:00:46;;;;;;;1.75;1.10;;;7.60;23.70;;;;;;4972534;28;20234;-76
2023/03/11 10:03:30;;;;;;;1.70;1.10;;;7.70;24.40;;;;;;4963794;28;20195;-75
2023/03/11 10:06:14;;;;;;;1.80;1.20;;;8.10;24.00;;;;;;4975893;28;20171;-76
2023/03/11 10:09:08;;;;;;;2.53;1.83;;;8.40;22.40;;;;;;4975014;28;20253;-77
2023/03/11 10:12:02;;;;;;;1.80;1.20;;;8.30;23.40;;;;;;4958077;28;20677;-77
2023/03/11 10:14:30;;;;;;;1.80;1.10;;;7.40;23.60;;;;;;4974299;28;20215;-77
2023/03/11 10:17:19;;;;;;;1.83;1.15;;;8.50;23.00;;;;;;4975311;28;20233;-78
2023/03/11 10:20:16;;;;;;;1.90;1.17;;;9.10;22.10;;;;;;4974836;28;20567;-76
2023/03/11 10:22:53;;;;;;;1.95;1.30;;;8.10;20.90;;;;;;4967322;28;20625;-77
2023/03/11 10:25:31;;;;;;;2.58;1.63;;;7.70;22.40;;;;;;4975061;28;20218;-75
2023/03/11 10:28:07;;;;;;;1.80;1.20;;;7.10;22.00;;;;;;4975457;28;20190;-77
2023/03/11 10:30:46;;;;;;;1.85;1.20;;;7.00;22.30;;;;;;4974553;28;20257;-77
2023/03/11 10:33:28;;;;;;;1.90;1.20;;;7.50;23.00;;;;;;4966434;28;20197;-77
2023/03/11 10:35:55;;;;;;;1.90;1.30;;;7.80;21.70;;;;;;4968935;28;20185;-76
2023/03/11 10:38:31;;;;;;;1.83;1.20;;;8.10;20.80;;;;;;4974979;28;20219;-76
2023/03/11 10:41:02;;;;;;;1.77;1.13;;;8.60;20.20;;;;;;4974309;28;20221;-77
2023/03/11 10:43:50;;;;;;;1.80;1.20;;;9.10;19.80;;;;;;4970021;28;20277;-76
2023/03/11 10:46:23;;;;;;;1.80;1.20;;;9.30;19.10;;;;;;4974549;28;20261;-76
2023/03/11 10:48:48;;;;;;;1.77;1.20;;;9.30;19.20;;;;;;4956625;28;20291;-77
2023/03/11 10:51:23;;;;;;;1.80;1.20;;;9.30;19.00;;;;;;4974760;28;20257;-77
2023/03/11 10:53:57;;;;;;;1.80;1.20;;;9.30;21.40;;;;;;4954506;28;20442;-77
2023/03/11 10:56:39;;;;;;;1.90;1.25;;;9.60;18.00;;;;;;4970375;28;20646;-77
2023/03/11 10:59:41;;;;;;;2.00;1.30;;;8.90;20.00;;;;;;4955037;28;20162;-76
2023/03/11 11:02:27;;;;;;;1.80;1.20;;;8.70;18.70;;;;;;4957673;28;20315;-78
2023/03/11 11:05:19;;;;;;;1.90;1.20;;;9.80;17.60;;;;;;4961692;28;20668;-77
2023/03/11 11:07:49;;;;;;;2.00;1.20;;;11.30;14.40;;;;;;4963841;28;20194;-78
2023/03/11 11:10:22;;;;;;;2.13;1.30;;;11.70;15.00;;;;;;4971855;28;20941;-78
2023/03/11 11:13:00;;;;;;;1.90;1.17;;;12.60;14.60;;;;;;4968682;28;20445;-78
2023/03/11 11:15:30;;;;;;;1.90;1.20;;;12.30;14.40;;;;;;4974293;28;20447;-77
2023/03/11 11:18:02;;;;;;;1.90;1.37;;;11.30;15.70;;;;;;4973730;28;20419;-77
2023/03/11 11:20:30;;;;;;;1.77;1.10;;;11.10;15.90;;;;;;4974340;28;20938;-76
2023/03/11 11:22:58;;;;;;;1.80;1.20;;;10.80;17.30;;;;;;4969858;28;20506;-77
2023/03/11 11:25:37;;;;;;;1.80;1.20;;;10.80;15.90;;;;;;4973992;28;20456;-78
2023/03/11 11:28:16;;;;;;;1.97;1.33;;;11.10;15.80;;;;;;4974508;28;20462;-76
2023/03/11 11:31:05;;;;;;;2.07;1.30;;;10.70;17.80;;;;;;4974330;28;20400;-78
2023/03/11 11:33:38;;;;;;;1.87;1.30;;;10.90;15.80;;;;;;4976645;28;20440;-76
2023/03/11 11:36:10;;;;;;;1.80;1.10;;;11.70;16.00;;;;;;4970317;28;20442;-78
2023/03/11 11:38:36;;;;;;;1.70;1.10;;;12.60;14.80;;;;;;4974922;28;20407;-79
2023/03/11 11:41:04;;;;;;;2.20;1.50;;;13.60;14.10;;;;;;4973229;28;21506;-78
2023/03/11 11:43:53;;;;;;;2.00;1.37;;;13.20;12.90;;;;;;4973363;28;20213;-78
2023/03/11 11:46:29;;;;;;;2.00;1.30;;;13.10;14.20;;;;;;4971899;28;20435;-77
2023/03/11 11:49:07;;;;;;;2.40;1.30;;;14.20;12.30;;;;;;4979351;28;20845;-75
2023/03/11 11:51:39;;;;;;;2.03;1.30;;;14.90;11.50;;;;;;4976082;28;20401;-77
2023/03/11 11:54:16;;;;;;;2.10;1.20;;;14.50;10.80;;;;;;4966854;28;20498;-76
2023/03/11 11:56:43;;;;;;;2.10;1.30;;;12.70;13.80;;;;;;4966412;28;20407;-77
2023/03/11 11:59:21;;;;;;;2.80;1.50;;;12.70;14.10;;;;;;4974151;28;21086;-77
2023/03/11 12:01:59;;;;;;;2.20;1.30;;;13.60;12.80;;;;;;4975219;28;20420;-77
2023/03/11 12:04:35;;;;;;;2.23;1.27;;;15.50;11.30;;;;;;4974755;28;20472;-78
2023/03/11 12:07:10;;;;;;;2.43;1.20;;;17.00;11.00;;;;;;4976051;28;20417;-78
2023/03/11 12:10:13;;;;;;;2.63;1.30;;;16.40;9.30;;;;;;4974602;28;20490;-77
2023/03/11 12:12:49;;;;;;;2.70;1.30;;;16.50;9.70;;;;;;4974996;28;20857;-77
2023/03/11 12:15:25;;;;;;;7.13;1.50;;;15.50;9.80;;;;;;4967894;28;20466;-78
2023/03/11 12:17:58;;;;;;;2.80;1.40;;;16.80;10.50;;;;;;4973402;28;20410;-77
2023/03/11 12:20:37;;;;;;;3.10;1.50;;;16.80;9.40;;;;;;4956429;29;20961;-78
2023/03/11 12:23:18;;;;;;;2.90;1.23;;;17.30;8.70;;;;;;4964059;28;20455;-78
2023/03/11 12:26:32;;;;;;;2.90;1.37;;;18.00;7.70;;;;;;4974607;28;20466;-77
2023/03/11 12:29:26;;;;;;;2.77;1.20;;;17.90;10.30;;;;;;4947543;29;20884;-76
2023/03/11 12:31:54;;;;;;;2.97;1.33;;;14.40;9.80;;;;;;4946525;29;21004;-78
2023/03/11 12:34:21;;;;;;;2.90;1.30;;;13.50;12.60;;;;;;4945840;29;20496;-77
2023/03/11 12:36:48;;;;;;;2.87;1.30;;;14.40;10.10;;;;;;4946419;29;20462;-78
2023/03/11 12:39:28;;;;;;;2.53;1.20;;;15.60;9.90;;;;;;4941730;29;20419;-78
2023/03/11 12:42:12;;;;;;;2.60;1.30;;;15.00;12.70;;;;;;4933306;29;20416;-77
2023/03/11 12:44:39;;;;;;;2.47;1.10;;;14.30;11.30;;;;;;4938723;28;20464;-77
2023/03/11 12:47:07;;;;;;;2.60;1.30;;;13.70;12.10;;;;;;4946891;28;20449;-75
2023/03/11 12:49:38;;;;;;;2.40;1.30;;;12.00;14.10;;;;;;4949833;28;20438;-77
2023/03/11 12:52:17;;;;;;;2.40;1.20;;;13.60;14.60;;;;;;4956001;28;20454;-78
2023/03/11 12:54:48;;;;;;;2.60;1.30;;;15.30;10.70;;;;;;4960781;28;20446;-77
2023/03/11 12:57:17;;;;;;;2.63;1.30;;;15.60;10.60;;;;;;4957488;28;20444;-76
2023/03/11 13:00:00;;;;;;;3.00;1.50;;;14.70;11.40;;;;;;4941181;28;20432;-78
2023/03/11 13:02:50;;;;;;;2.80;1.20;;;16.20;10.70;;;;;;4953588;28;20462;-78
2023/03/11 13:05:54;;;;;;;2.90;1.30;;;15.20;10.10;;;;;;4964769;28;20544;-78
2023/03/11 13:08:36;;;;;;;3.17;1.40;;;15.40;10.80;;;;;;4975334;28;20913;-77